sensor_id;sensor_type;location;lat;lon;timestamp;P1;durP1;ratioP1;P2;durP2;ratioP2
27209;SDS011;14721;42.668;23.386;2023-02-28T00:00:29;22.77;;;9.40;;
27209;SDS011;14721;42.668;23.386;2023-02-28T00:02:55;24.33;;;9.70;;
27209;SDS011;14721;42.668;23.386;2023-02-28T00:05:21;21.30;;;9.43;;
27209;SDS011;14721;42.668;23.386;2023-02-28T00:07:49;18.07;;;9.03;;
27209;SDS011;14721;42.668;23.386;2023-02-28T00:10:17;24.83;;;11.10;;
27209;SDS011;14721;42.668;23.386;2023-02-28T00:12:46;22.10;;;9.93;;
27209;SDS011;14721;42.668;23.386;2023-02-28T00:15:12;25.10;;;9.73;;
27209;SDS011;14721;42.668;23.386;2023-02-28T00:17:38;25.83;;;10.50;;
27209;SDS011;14721;42.668;23.386;2023-02-28T00:20:04;20.83;;;9.10;;
27209;SDS011;14721;42.668;23.386;2023-02-28T00:22:33;20.53;;;9.03;;
27209;SDS011;14721;42.668;23.386;2023-02-28T00:24:59;20.03;;;8.97;;
27209;SDS011;14721;42.668;23.386;2023-02-28T00:27:25;19.00;;;9.20;;
27209;SDS011;14721;42.668;23.386;2023-02-28T00:29:50;18.70;;;8.87;;
27209;SDS011;14721;42.668;23.386;2023-02-28T00:32:16;18.03;;;8.93;;
27209;SDS011;14721;42.668;23.386;2023-02-28T00:34:42;18.57;;;8.43;;
27209;SDS011;14721;42.668;23.386;2023-02-28T00:37:09;18.67;;;8.97;;
27209;SDS011;14721;42.668;23.386;2023-02-28T00:39:37;21.67;;;8.97;;
27209;SDS011;14721;42.668;23.386;2023-02-28T00:42:04;19.73;;;9.47;;
27209;SDS011;14721;42.668;23.386;2023-02-28T00:44:31;21.67;;;9.23;;
27209;SDS011;14721;42.668;23.386;2023-02-28T00:46:56;18.00;;;8.57;;
27209;SDS011;14721;42.668;23.386;2023-02-28T00:49:23;21.73;;;9.00;;
27209;SDS011;14721;42.668;23.386;2023-02-28T00:51:48;30.73;;;11.67;;
27209;SDS011;14721;42.668;23.386;2023-02-28T00:54:15;21.00;;;9.73;;
27209;SDS011;14721;42.668;23.386;2023-02-28T00:56:40;24.13;;;11.07;;
27209;SDS011;14721;42.668;23.386;2023-02-28T00:59:06;20.77;;;9.33;;
27209;SDS011;14721;42.668;23.386;2023-02-28T01:01:31;22.90;;;9.57;;
27209;SDS011;14721;42.668;23.386;2023-02-28T01:03:57;20.97;;;9.67;;
27209;SDS011;14721;42.668;23.386;2023-02-28T01:06:23;16.23;;;7.93;;
27209;SDS011;14721;42.668;23.386;2023-02-28T01:08:48;21.17;;;10.23;;
27209;SDS011;14721;42.668;23.386;2023-02-28T01:11:14;25.20;;;9.70;;
27209;SDS011;14721;42.668;23.386;2023-02-28T01:13:41;20.53;;;8.93;;
27209;SDS011;14721;42.668;23.386;2023-02-28T01:16:08;22.03;;;10.30;;
27209;SDS011;14721;42.668;23.386;2023-02-28T01:18:34;26.50;;;9.93;;
27209;SDS011;14721;42.668;23.386;2023-02-28T01:21:05;22.53;;;10.23;;
27209;SDS011;14721;42.668;23.386;2023-02-28T01:23:32;14.80;;;8.77;;
27209;SDS011;14721;42.668;23.386;2023-02-28T01:26:02;23.00;;;10.20;;
27209;SDS011;14721;42.668;23.386;2023-02-28T01:28:29;21.47;;;9.93;;
27209;SDS011;14721;42.668;23.386;2023-02-28T01:30:55;26.93;;;9.80;;
27209;SDS011;14721;42.668;23.386;2023-02-28T01:33:20;24.13;;;10.67;;
27209;SDS011;14721;42.668;23.386;2023-02-28T01:35:46;27.33;;;10.17;;
27209;SDS011;14721;42.668;23.386;2023-02-28T01:38:11;25.50;;;10.70;;
27209;SDS011;14721;42.668;23.386;2023-02-28T01:40:37;26.73;;;10.67;;
27209;SDS011;14721;42.668;23.386;2023-02-28T01:43:04;24.60;;;10.13;;
27209;SDS011;14721;42.668;23.386;2023-02-28T01:45:42;21.70;;;10.47;;
27209;SDS011;14721;42.668;23.386;2023-02-28T01:48:07;26.63;;;10.43;;
27209;SDS011;14721;42.668;23.386;2023-02-28T01:50:38;24.13;;;10.47;;
27209;SDS011;14721;42.668;23.386;2023-02-28T01:53:08;27.43;;;10.97;;
27209;SDS011;14721;42.668;23.386;2023-02-28T01:55:38;24.80;;;10.70;;
27209;SDS011;14721;42.668;23.386;2023-02-28T01:58:06;26.10;;;10.43;;
27209;SDS011;14721;42.668;23.386;2023-02-28T02:00:34;23.03;;;10.73;;
27209;SDS011;14721;42.668;23.386;2023-02-28T02:03:05;23.77;;;10.23;;
27209;SDS011;14721;42.668;23.386;2023-02-28T02:05:37;21.63;;;9.70;;
27209;SDS011;14721;42.668;23.386;2023-02-28T02:08:04;29.67;;;11.30;;
27209;SDS011;14721;42.668;23.386;2023-02-28T02:10:50;25.73;;;11.10;;
27209;SDS011;14721;42.668;23.386;2023-02-28T02:25:04;26.07;;;10.27;;
27209;SDS011;14721;42.668;23.386;2023-02-28T02:33:28;25.00;;;10.33;;
27209;SDS011;14721;42.668;23.386;2023-02-28T02:41:50;22.20;;;10.03;;
27209;SDS011;14721;42.668;23.386;2023-02-28T02:44:23;28.93;;;12.57;;
27209;SDS011;14721;42.668;23.386;2023-02-28T02:47:09;28.60;;;11.00;;
27209;SDS011;14721;42.668;23.386;2023-02-28T02:49:38;22.37;;;9.47;;
27209;SDS011;14721;42.668;23.386;2023-02-28T02:52:08;29.10;;;12.83;;
27209;SDS011;14721;42.668;23.386;2023-02-28T02:54:40;30.83;;;12.57;;
27209;SDS011;14721;42.668;23.386;2023-02-28T02:57:11;31.47;;;13.83;;
27209;SDS011;14721;42.668;23.386;2023-02-28T02:59:40;38.57;;;12.70;;
27209;SDS011;14721;42.668;23.386;2023-02-28T03:02:08;35.53;;;14.67;;
27209;SDS011;14721;42.668;23.386;2023-02-28T03:04:45;34.33;;;13.47;;
27209;SDS011;14721;42.668;23.386;2023-02-28T03:07:16;30.90;;;13.70;;
27209;SDS011;14721;42.668;23.386;2023-02-28T03:09:49;31.00;;;14.17;;
27209;SDS011;14721;42.668;23.386;2023-02-28T03:12:17;30.77;;;11.93;;
27209;SDS011;14721;42.668;23.386;2023-02-28T03:31:01;31.60;;;13.37;;
27209;SDS011;14721;42.668;23.386;2023-02-28T03:33:39;38.07;;;14.10;;
27209;SDS011;14721;42.668;23.386;2023-02-28T03:36:11;31.03;;;12.90;;
27209;SDS011;14721;42.668;23.386;2023-02-28T03:38:49;34.10;;;14.43;;
27209;SDS011;14721;42.668;23.386;2023-02-28T03:41:20;33.20;;;12.73;;
27209;SDS011;14721;42.668;23.386;2023-02-28T03:44:11;48.23;;;13.70;;
27209;SDS011;14721;42.668;23.386;2023-02-28T03:46:41;32.37;;;11.67;;
27209;SDS011;14721;42.668;23.386;2023-02-28T03:49:15;32.67;;;13.40;;
27209;SDS011;14721;42.668;23.386;2023-02-28T03:51:44;30.03;;;11.90;;
27209;SDS011;14721;42.668;23.386;2023-02-28T03:54:14;33.60;;;13.47;;
27209;SDS011;14721;42.668;23.386;2023-02-28T03:56:45;32.63;;;12.13;;
27209;SDS011;14721;42.668;23.386;2023-02-28T03:59:27;41.77;;;14.33;;
27209;SDS011;14721;42.668;23.386;2023-02-28T04:01:59;38.27;;;15.67;;
27209;SDS011;14721;42.668;23.386;2023-02-28T04:04:25;35.97;;;15.33;;
27209;SDS011;14721;42.668;23.386;2023-02-28T04:06:51;41.20;;;15.97;;
27209;SDS011;14721;42.668;23.386;2023-02-28T04:09:18;42.97;;;15.03;;
27209;SDS011;14721;42.668;23.386;2023-02-28T04:11:45;39.10;;;14.27;;
27209;SDS011;14721;42.668;23.386;2023-02-28T04:14:17;41.27;;;14.73;;
27209;SDS011;14721;42.668;23.386;2023-02-28T04:16:47;39.27;;;14.60;;
27209;SDS011;14721;42.668;23.386;2023-02-28T04:19:14;35.63;;;15.47;;
27209;SDS011;14721;42.668;23.386;2023-02-28T04:21:40;35.17;;;14.43;;
27209;SDS011;14721;42.668;23.386;2023-02-28T04:24:09;41.00;;;16.23;;
27209;SDS011;14721;42.668;23.386;2023-02-28T04:26:39;49.40;;;16.30;;
27209;SDS011;14721;42.668;23.386;2023-02-28T04:29:08;39.80;;;15.77;;
27209;SDS011;14721;42.668;23.386;2023-02-28T04:31:34;41.60;;;16.50;;
27209;SDS011;14721;42.668;23.386;2023-02-28T04:34:00;39.97;;;15.50;;
27209;SDS011;14721;42.668;23.386;2023-02-28T04:36:26;47.30;;;17.37;;
27209;SDS011;14721;42.668;23.386;2023-02-28T04:38:51;40.73;;;15.87;;
27209;SDS011;14721;42.668;23.386;2023-02-28T04:41:17;44.80;;;17.77;;
27209;SDS011;14721;42.668;23.386;2023-02-28T04:43:43;47.63;;;17.87;;
27209;SDS011;14721;42.668;23.386;2023-02-28T04:46:09;60.73;;;17.27;;
27209;SDS011;14721;42.668;23.386;2023-02-28T04:48:36;61.23;;;21.23;;
27209;SDS011;14721;42.668;23.386;2023-02-28T04:51:03;61.87;;;20.67;;
27209;SDS011;14721;42.668;23.386;2023-02-28T04:53:31;48.57;;;16.97;;
27209;SDS011;14721;42.668;23.386;2023-02-28T04:55:57;50.80;;;18.27;;
27209;SDS011;14721;42.668;23.386;2023-02-28T04:58:23;55.80;;;16.40;;
27209;SDS011;14721;42.668;23.386;2023-02-28T05:00:52;41.83;;;15.43;;
27209;SDS011;14721;42.668;23.386;2023-02-28T05:03:19;45.07;;;16.23;;
27209;SDS011;14721;42.668;23.386;2023-02-28T05:05:46;50.93;;;16.77;;
27209;SDS011;14721;42.668;23.386;2023-02-28T05:08:12;47.50;;;17.33;;
27209;SDS011;14721;42.668;23.386;2023-02-28T05:10:38;52.27;;;19.13;;
27209;SDS011;14721;42.668;23.386;2023-02-28T05:13:04;55.30;;;16.10;;
27209;SDS011;14721;42.668;23.386;2023-02-28T05:15:29;56.37;;;17.23;;
27209;SDS011;14721;42.668;23.386;2023-02-28T05:17:55;54.87;;;19.63;;
27209;SDS011;14721;42.668;23.386;2023-02-28T05:20:20;44.77;;;17.07;;
27209;SDS011;14721;42.668;23.386;2023-02-28T05:22:46;39.07;;;15.70;;
27209;SDS011;14721;42.668;23.386;2023-02-28T05:25:13;45.10;;;18.70;;
27209;SDS011;14721;42.668;23.386;2023-02-28T05:27:43;55.03;;;18.23;;
27209;SDS011;14721;42.668;23.386;2023-02-28T05:30:09;52.47;;;18.37;;
27209;SDS011;14721;42.668;23.386;2023-02-28T05:32:38;46.83;;;18.57;;
27209;SDS011;14721;42.668;23.386;2023-02-28T05:35:08;50.17;;;17.37;;
27209;SDS011;14721;42.668;23.386;2023-02-28T05:37:37;74.53;;;27.20;;
27209;SDS011;14721;42.668;23.386;2023-02-28T05:40:04;60.83;;;24.77;;
27209;SDS011;14721;42.668;23.386;2023-02-28T05:42:37;67.90;;;27.03;;
27209;SDS011;14721;42.668;23.386;2023-02-28T05:45:03;63.23;;;25.17;;
27209;SDS011;14721;42.668;23.386;2023-02-28T05:47:30;53.07;;;21.37;;
27209;SDS011;14721;42.668;23.386;2023-02-28T05:49:55;54.83;;;17.23;;
27209;SDS011;14721;42.668;23.386;2023-02-28T05:52:21;40.10;;;16.23;;
27209;SDS011;14721;42.668;23.386;2023-02-28T05:54:47;51.87;;;16.87;;
27209;SDS011;14721;42.668;23.386;2023-02-28T05:57:12;40.80;;;15.57;;
27209;SDS011;14721;42.668;23.386;2023-02-28T05:59:38;43.97;;;15.53;;
27209;SDS011;14721;42.668;23.386;2023-02-28T06:02:05;45.13;;;17.77;;
27209;SDS011;14721;42.668;23.386;2023-02-28T06:04:40;44.83;;;16.20;;
27209;SDS011;14721;42.668;23.386;2023-02-28T06:07:07;51.83;;;18.57;;
27209;SDS011;14721;42.668;23.386;2023-02-28T06:09:33;48.03;;;20.00;;
27209;SDS011;14721;42.668;23.386;2023-02-28T06:11:59;52.63;;;18.03;;
27209;SDS011;14721;42.668;23.386;2023-02-28T06:14:28;42.23;;;18.03;;
27209;SDS011;14721;42.668;23.386;2023-02-28T06:16:56;51.03;;;16.77;;
27209;SDS011;14721;42.668;23.386;2023-02-28T06:19:22;45.00;;;16.73;;
27209;SDS011;14721;42.668;23.386;2023-02-28T06:21:50;50.00;;;17.97;;
27209;SDS011;14721;42.668;23.386;2023-02-28T06:24:17;43.70;;;17.40;;
27209;SDS011;14721;42.668;23.386;2023-02-28T06:26:46;55.17;;;19.77;;
27209;SDS011;14721;42.668;23.386;2023-02-28T06:29:13;54.27;;;18.17;;
27209;SDS011;14721;42.668;23.386;2023-02-28T06:31:42;57.10;;;20.27;;
27209;SDS011;14721;42.668;23.386;2023-02-28T06:34:09;52.50;;;19.67;;
27209;SDS011;14721;42.668;23.386;2023-02-28T06:36:37;50.83;;;18.00;;
27209;SDS011;14721;42.668;23.386;2023-02-28T06:39:03;48.07;;;19.20;;
27209;SDS011;14721;42.668;23.386;2023-02-28T06:41:29;45.63;;;18.50;;
27209;SDS011;14721;42.668;23.386;2023-02-28T06:43:55;40.17;;;15.97;;
27209;SDS011;14721;42.668;23.386;2023-02-28T06:46:21;36.47;;;16.43;;
27209;SDS011;14721;42.668;23.386;2023-02-28T06:48:46;40.63;;;15.97;;
27209;SDS011;14721;42.668;23.386;2023-02-28T06:51:19;36.73;;;16.00;;
27209;SDS011;14721;42.668;23.386;2023-02-28T06:53:47;37.13;;;14.93;;
27209;SDS011;14721;42.668;23.386;2023-02-28T06:56:13;42.30;;;17.20;;
27209;SDS011;14721;42.668;23.386;2023-02-28T06:58:41;46.87;;;17.70;;
27209;SDS011;14721;42.668;23.386;2023-02-28T07:01:07;41.37;;;18.23;;
27209;SDS011;14721;42.668;23.386;2023-02-28T07:03:34;45.20;;;17.27;;
27209;SDS011;14721;42.668;23.386;2023-02-28T07:06:00;38.30;;;16.13;;
27209;SDS011;14721;42.668;23.386;2023-02-28T07:08:26;32.77;;;16.33;;
27209;SDS011;14721;42.668;23.386;2023-02-28T07:10:53;41.80;;;16.57;;
27209;SDS011;14721;42.668;23.386;2023-02-28T07:13:22;36.57;;;16.10;;
27209;SDS011;14721;42.668;23.386;2023-02-28T07:18:20;35.37;;;14.70;;
27209;SDS011;14721;42.668;23.386;2023-02-28T07:20:51;31.37;;;14.47;;
27209;SDS011;14721;42.668;23.386;2023-02-28T07:23:17;30.30;;;14.10;;
27209;SDS011;14721;42.668;23.386;2023-02-28T07:25:43;31.70;;;14.33;;
27209;SDS011;14721;42.668;23.386;2023-02-28T07:28:10;35.13;;;14.13;;
27209;SDS011;14721;42.668;23.386;2023-02-28T07:30:36;27.43;;;12.67;;
27209;SDS011;14721;42.668;23.386;2023-02-28T07:33:02;28.70;;;12.63;;
27209;SDS011;14721;42.668;23.386;2023-02-28T07:35:28;32.73;;;14.97;;
27209;SDS011;14721;42.668;23.386;2023-02-28T07:37:54;35.20;;;14.07;;
27209;SDS011;14721;42.668;23.386;2023-02-28T07:40:20;32.20;;;13.73;;
27209;SDS011;14721;42.668;23.386;2023-02-28T07:42:46;34.13;;;14.27;;
27209;SDS011;14721;42.668;23.386;2023-02-28T07:45:11;31.93;;;14.27;;
27209;SDS011;14721;42.668;23.386;2023-02-28T07:47:37;30.77;;;15.50;;
27209;SDS011;14721;42.668;23.386;2023-02-28T07:50:04;31.93;;;15.27;;
27209;SDS011;14721;42.668;23.386;2023-02-28T07:52:31;33.20;;;14.60;;
27209;SDS011;14721;42.668;23.386;2023-02-28T07:54:57;32.60;;;15.37;;
27209;SDS011;14721;42.668;23.386;2023-02-28T07:57:22;41.53;;;16.40;;
27209;SDS011;14721;42.668;23.386;2023-02-28T07:59:48;31.43;;;14.63;;
27209;SDS011;14721;42.668;23.386;2023-02-28T08:02:13;36.03;;;14.33;;
27209;SDS011;14721;42.668;23.386;2023-02-28T08:04:40;34.83;;;15.37;;
27209;SDS011;14721;42.668;23.386;2023-02-28T08:07:05;34.07;;;15.40;;
27209;SDS011;14721;42.668;23.386;2023-02-28T08:09:31;35.87;;;14.93;;
27209;SDS011;14721;42.668;23.386;2023-02-28T08:11:57;31.03;;;15.50;;
27209;SDS011;14721;42.668;23.386;2023-02-28T08:14:22;32.00;;;14.20;;
27209;SDS011;14721;42.668;23.386;2023-02-28T08:16:48;26.97;;;13.20;;
27209;SDS011;14721;42.668;23.386;2023-02-28T08:19:13;35.60;;;15.93;;
27209;SDS011;14721;42.668;23.386;2023-02-28T08:21:39;32.77;;;14.57;;
27209;SDS011;14721;42.668;23.386;2023-02-28T08:24:05;35.70;;;14.20;;
27209;SDS011;14721;42.668;23.386;2023-02-28T08:26:30;29.37;;;12.40;;
27209;SDS011;14721;42.668;23.386;2023-02-28T08:28:56;24.63;;;10.67;;
27209;SDS011;14721;42.668;23.386;2023-02-28T08:31:22;32.40;;;11.30;;
27209;SDS011;14721;42.668;23.386;2023-02-28T08:33:48;27.40;;;11.50;;
27209;SDS011;14721;42.668;23.386;2023-02-28T08:36:16;26.30;;;11.17;;
27209;SDS011;14721;42.668;23.386;2023-02-28T08:38:41;29.53;;;12.43;;
27209;SDS011;14721;42.668;23.386;2023-02-28T08:41:08;29.83;;;11.70;;
27209;SDS011;14721;42.668;23.386;2023-02-28T08:43:37;30.37;;;10.93;;
27209;SDS011;14721;42.668;23.386;2023-02-28T08:46:03;22.20;;;9.97;;
27209;SDS011;14721;42.668;23.386;2023-02-28T08:48:30;23.60;;;10.40;;
27209;SDS011;14721;42.668;23.386;2023-02-28T08:50:58;33.90;;;10.83;;
27209;SDS011;14721;42.668;23.386;2023-02-28T08:53:25;27.37;;;11.47;;
27209;SDS011;14721;42.668;23.386;2023-02-28T08:56:01;23.33;;;10.50;;
27209;SDS011;14721;42.668;23.386;2023-02-28T08:58:45;28.33;;;10.73;;
27209;SDS011;14721;42.668;23.386;2023-02-28T09:01:13;29.93;;;11.70;;
27209;SDS011;14721;42.668;23.386;2023-02-28T09:03:38;23.67;;;9.80;;
27209;SDS011;14721;42.668;23.386;2023-02-28T09:06:05;20.13;;;9.67;;
27209;SDS011;14721;42.668;23.386;2023-02-28T09:08:32;27.10;;;10.77;;
27209;SDS011;14721;42.668;23.386;2023-02-28T09:10:58;26.37;;;10.30;;
27209;SDS011;14721;42.668;23.386;2023-02-28T09:13:24;26.33;;;11.00;;
27209;SDS011;14721;42.668;23.386;2023-02-28T09:15:51;25.13;;;10.57;;
27209;SDS011;14721;42.668;23.386;2023-02-28T09:18:17;27.30;;;11.83;;
27209;SDS011;14721;42.668;23.386;2023-02-28T09:20:42;22.30;;;10.23;;
27209;SDS011;14721;42.668;23.386;2023-02-28T09:23:09;24.43;;;11.33;;
27209;SDS011;14721;42.668;23.386;2023-02-28T09:25:35;27.20;;;10.73;;
27209;SDS011;14721;42.668;23.386;2023-02-28T09:28:01;24.07;;;9.60;;
27209;SDS011;14721;42.668;23.386;2023-02-28T09:30:27;23.47;;;10.17;;
27209;SDS011;14721;42.668;23.386;2023-02-28T09:32:53;24.63;;;9.70;;
27209;SDS011;14721;42.668;23.386;2023-02-28T09:35:19;34.23;;;9.20;;
27209;SDS011;14721;42.668;23.386;2023-02-28T09:37:47;25.70;;;9.60;;
27209;SDS011;14721;42.668;23.386;2023-02-28T09:40:22;24.57;;;9.77;;
27209;SDS011;14721;42.668;23.386;2023-02-28T09:42:51;23.37;;;9.03;;
27209;SDS011;14721;42.668;23.386;2023-02-28T09:45:24;22.50;;;10.13;;
27209;SDS011;14721;42.668;23.386;2023-02-28T09:48:10;21.23;;;9.10;;
27209;SDS011;14721;42.668;23.386;2023-02-28T09:50:43;20.53;;;9.23;;
27209;SDS011;14721;42.668;23.386;2023-02-28T09:53:26;21.33;;;8.50;;
27209;SDS011;14721;42.668;23.386;2023-02-28T09:56:09;23.53;;;8.67;;
27209;SDS011;14721;42.668;23.386;2023-02-28T10:01:30;17.90;;;6.77;;
27209;SDS011;14721;42.668;23.386;2023-02-28T10:04:00;26.50;;;9.50;;
27209;SDS011;14721;42.668;23.386;2023-02-28T10:06:38;30.80;;;10.10;;
27209;SDS011;14721;42.668;23.386;2023-02-28T10:09:14;26.77;;;9.63;;
27209;SDS011;14721;42.668;23.386;2023-02-28T10:11:51;22.03;;;8.10;;
27209;SDS011;14721;42.668;23.386;2023-02-28T10:14:27;25.93;;;8.63;;
27209;SDS011;14721;42.668;23.386;2023-02-28T10:16:55;23.60;;;8.70;;
27209;SDS011;14721;42.668;23.386;2023-02-28T10:24:35;18.87;;;9.40;;
27209;SDS011;14721;42.668;23.386;2023-02-28T10:27:09;22.43;;;7.77;;
27209;SDS011;14721;42.668;23.386;2023-02-28T10:29:44;15.43;;;7.77;;
27209;SDS011;14721;42.668;23.386;2023-02-28T10:32:12;14.13;;;6.50;;
27209;SDS011;14721;42.668;23.386;2023-02-28T10:34:40;19.10;;;7.43;;
27209;SDS011;14721;42.668;23.386;2023-02-28T10:37:06;22.17;;;8.43;;
27209;SDS011;14721;42.668;23.386;2023-02-28T10:42:02;14.73;;;7.30;;
27209;SDS011;14721;42.668;23.386;2023-02-28T10:44:29;17.83;;;7.13;;
27209;SDS011;14721;42.668;23.386;2023-02-28T10:46:54;21.17;;;8.57;;
27209;SDS011;14721;42.668;23.386;2023-02-28T10:49:27;22.77;;;8.00;;
27209;SDS011;14721;42.668;23.386;2023-02-28T10:51:58;15.37;;;7.90;;
27209;SDS011;14721;42.668;23.386;2023-02-28T10:54:32;23.17;;;7.97;;
27209;SDS011;14721;42.668;23.386;2023-02-28T10:57:19;22.67;;;8.30;;
27209;SDS011;14721;42.668;23.386;2023-02-28T10:59:52;19.73;;;7.57;;
27209;SDS011;14721;42.668;23.386;2023-02-28T11:02:38;25.27;;;7.73;;
27209;SDS011;14721;42.668;23.386;2023-02-28T11:08:15;23.60;;;7.70;;
27209;SDS011;14721;42.668;23.386;2023-02-28T11:10:44;23.00;;;9.03;;
27209;SDS011;14721;42.668;23.386;2023-02-28T11:13:19;21.57;;;7.83;;
27209;SDS011;14721;42.668;23.386;2023-02-28T11:15:52;16.93;;;7.30;;
27209;SDS011;14721;42.668;23.386;2023-02-28T11:19:23;16.33;;;7.30;;
27209;SDS011;14721;42.668;23.386;2023-02-28T11:21:24;20.60;;;9.70;;
27209;SDS011;14721;42.668;23.386;2023-02-28T11:23:56;25.00;;;8.77;;
27209;SDS011;14721;42.668;23.386;2023-02-28T11:26:35;16.10;;;7.33;;
27209;SDS011;14721;42.668;23.386;2023-02-28T11:32:02;18.70;;;9.50;;
27209;SDS011;14721;42.668;23.386;2023-02-28T11:34:27;18.47;;;8.20;;
27209;SDS011;14721;42.668;23.386;2023-02-28T11:36:57;16.43;;;8.73;;
27209;SDS011;14721;42.668;23.386;2023-02-28T11:39:25;21.10;;;9.97;;
27209;SDS011;14721;42.668;23.386;2023-02-28T11:42:01;26.87;;;9.13;;
27209;SDS011;14721;42.668;23.386;2023-02-28T11:53:13;19.30;;;8.80;;
27209;SDS011;14721;42.668;23.386;2023-02-28T11:55:44;17.93;;;7.10;;
27209;SDS011;14721;42.668;23.386;2023-02-28T11:58:28;24.27;;;9.03;;
27209;SDS011;14721;42.668;23.386;2023-02-28T12:11:59;15.87;;;7.30;;
27209;SDS011;14721;42.668;23.386;2023-02-28T12:29:10;17.60;;;7.57;;
27209;SDS011;14721;42.668;23.386;2023-02-28T12:31:55;23.07;;;8.57;;
27209;SDS011;14721;42.668;23.386;2023-02-28T12:34:47;22.90;;;8.07;;
27209;SDS011;14721;42.668;23.386;2023-02-28T12:40:12;20.83;;;8.00;;
27209;SDS011;14721;42.668;23.386;2023-02-28T12:42:42;13.60;;;7.03;;
27209;SDS011;14721;42.668;23.386;2023-02-28T12:45:15;16.50;;;7.13;;
27209;SDS011;14721;42.668;23.386;2023-02-28T12:47:42;21.00;;;6.47;;
27209;SDS011;14721;42.668;23.386;2023-02-28T12:50:11;18.40;;;8.83;;
27209;SDS011;14721;42.668;23.386;2023-02-28T12:55:15;20.27;;;8.43;;
27209;SDS011;14721;42.668;23.386;2023-02-28T13:00:46;20.60;;;9.27;;
27209;SDS011;14721;42.668;23.386;2023-02-28T13:03:32;17.63;;;8.43;;
27209;SDS011;14721;42.668;23.386;2023-02-28T13:09:01;24.70;;;8.87;;
27209;SDS011;14721;42.668;23.386;2023-02-28T13:14:24;18.57;;;9.07;;
27209;SDS011;14721;42.668;23.386;2023-02-28T13:16:54;25.87;;;9.73;;
27209;SDS011;14721;42.668;23.386;2023-02-28T13:19:33;22.80;;;8.77;;
27209;SDS011;14721;42.668;23.386;2023-02-28T13:22:03;24.20;;;8.83;;
27209;SDS011;14721;42.668;23.386;2023-02-28T13:29:51;28.83;;;9.27;;
27209;SDS011;14721;42.668;23.386;2023-02-28T13:32:19;21.23;;;7.97;;
27209;SDS011;14721;42.668;23.386;2023-02-28T13:39:53;18.93;;;8.47;;
27209;SDS011;14721;42.668;23.386;2023-02-28T13:42:32;18.90;;;7.87;;
27209;SDS011;14721;42.668;23.386;2023-02-28T13:47:33;24.10;;;8.47;;
27209;SDS011;14721;42.668;23.386;2023-02-28T13:58:46;19.33;;;5.73;;
27209;SDS011;14721;42.668;23.386;2023-02-28T14:01:26;20.37;;;6.30;;
27209;SDS011;14721;42.668;23.386;2023-02-28T14:04:25;11.67;;;6.20;;
27209;SDS011;14721;42.668;23.386;2023-02-28T14:07:07;18.30;;;7.40;;
27209;SDS011;14721;42.668;23.386;2023-02-28T14:09:41;26.60;;;7.30;;
27209;SDS011;14721;42.668;23.386;2023-02-28T14:17:58;20.23;;;7.97;;
27209;SDS011;14721;42.668;23.386;2023-02-28T14:20:27;20.53;;;9.00;;
27209;SDS011;14721;42.668;23.386;2023-02-28T14:30:51;22.53;;;7.53;;
27209;SDS011;14721;42.668;23.386;2023-02-28T14:33:25;17.77;;;5.90;;
27209;SDS011;14721;42.668;23.386;2023-02-28T14:36:31;18.87;;;7.17;;
27209;SDS011;14721;42.668;23.386;2023-02-28T14:41:47;15.60;;;7.87;;
27209;SDS011;14721;42.668;23.386;2023-02-28T14:44:19;20.27;;;8.60;;
27209;SDS011;14721;42.668;23.386;2023-02-28T14:46:54;19.97;;;7.80;;
27209;SDS011;14721;42.668;23.386;2023-02-28T14:49:28;18.27;;;8.53;;
27209;SDS011;14721;42.668;23.386;2023-02-28T14:52:06;17.30;;;7.27;;
27209;SDS011;14721;42.668;23.386;2023-02-28T14:54:56;24.67;;;8.60;;
27209;SDS011;14721;42.668;23.386;2023-02-28T15:00:51;23.63;;;7.90;;
27209;SDS011;14721;42.668;23.386;2023-02-28T15:02:50;18.50;;;7.10;;
27209;SDS011;14721;42.668;23.386;2023-02-28T15:05:19;19.13;;;6.37;;
27209;SDS011;14721;42.668;23.386;2023-02-28T15:07:47;16.60;;;6.50;;
27209;SDS011;14721;42.668;23.386;2023-02-28T15:12:58;21.03;;;6.00;;
27209;SDS011;14721;42.668;23.386;2023-02-28T15:21:12;24.03;;;6.20;;
27209;SDS011;14721;42.668;23.386;2023-02-28T15:23:41;15.87;;;6.43;;
27209;SDS011;14721;42.668;23.386;2023-02-28T15:26:12;15.13;;;5.47;;
27209;SDS011;14721;42.668;23.386;2023-02-28T15:28:42;21.60;;;6.73;;
27209;SDS011;14721;42.668;23.386;2023-02-28T15:34:21;11.07;;;5.83;;
27209;SDS011;14721;42.668;23.386;2023-02-28T15:39:57;13.80;;;5.90;;
27209;SDS011;14721;42.668;23.386;2023-02-28T15:42:41;12.70;;;5.60;;
27209;SDS011;14721;42.668;23.386;2023-02-28T15:48:02;14.47;;;6.20;;
27209;SDS011;14721;42.668;23.386;2023-02-28T15:50:44;16.47;;;5.37;;
27209;SDS011;14721;42.668;23.386;2023-02-28T15:53:23;11.53;;;5.60;;
27209;SDS011;14721;42.668;23.386;2023-02-28T15:56:01;11.77;;;7.03;;
27209;SDS011;14721;42.668;23.386;2023-02-28T15:58:41;14.27;;;6.47;;
27209;SDS011;14721;42.668;23.386;2023-02-28T16:01:24;11.93;;;6.33;;
27209;SDS011;14721;42.668;23.386;2023-02-28T16:04:11;13.17;;;5.63;;
27209;SDS011;14721;42.668;23.386;2023-02-28T16:09:22;11.90;;;4.77;;
27209;SDS011;14721;42.668;23.386;2023-02-28T16:11:50;12.47;;;5.23;;
27209;SDS011;14721;42.668;23.386;2023-02-28T16:14:20;14.30;;;5.97;;
27209;SDS011;14721;42.668;23.386;2023-02-28T16:16:53;9.90;;;3.83;;
27209;SDS011;14721;42.668;23.386;2023-02-28T16:19:20;11.33;;;5.10;;
27209;SDS011;14721;42.668;23.386;2023-02-28T16:21:46;12.37;;;5.40;;
27209;SDS011;14721;42.668;23.386;2023-02-28T16:24:12;13.60;;;6.10;;
27209;SDS011;14721;42.668;23.386;2023-02-28T16:26:42;11.33;;;4.97;;
27209;SDS011;14721;42.668;23.386;2023-02-28T16:29:13;8.63;;;4.13;;
27209;SDS011;14721;42.668;23.386;2023-02-28T16:31:44;11.67;;;4.57;;
27209;SDS011;14721;42.668;23.386;2023-02-28T16:34:09;12.57;;;4.87;;
27209;SDS011;14721;42.668;23.386;2023-02-28T16:36:37;10.27;;;3.40;;
27209;SDS011;14721;42.668;23.386;2023-02-28T16:39:02;9.60;;;4.13;;
27209;SDS011;14721;42.668;23.386;2023-02-28T16:41:28;8.33;;;3.83;;
27209;SDS011;14721;42.668;23.386;2023-02-28T16:43:55;9.10;;;4.37;;
27209;SDS011;14721;42.668;23.386;2023-02-28T16:46:27;7.93;;;3.53;;
27209;SDS011;14721;42.668;23.386;2023-02-28T16:48:59;11.07;;;4.20;;
27209;SDS011;14721;42.668;23.386;2023-02-28T16:51:25;11.57;;;4.23;;
27209;SDS011;14721;42.668;23.386;2023-02-28T16:53:50;9.00;;;4.13;;
27209;SDS011;14721;42.668;23.386;2023-02-28T16:56:22;10.93;;;4.80;;
27209;SDS011;14721;42.668;23.386;2023-02-28T16:58:50;8.07;;;4.23;;
27209;SDS011;14721;42.668;23.386;2023-02-28T17:01:16;7.77;;;3.70;;
27209;SDS011;14721;42.668;23.386;2023-02-28T17:03:47;15.47;;;4.77;;
27209;SDS011;14721;42.668;23.386;2023-02-28T17:06:17;8.63;;;3.30;;
27209;SDS011;14721;42.668;23.386;2023-02-28T17:08:46;10.37;;;4.37;;
27209;SDS011;14721;42.668;23.386;2023-02-28T17:11:13;10.37;;;3.97;;
27209;SDS011;14721;42.668;23.386;2023-02-28T17:13:38;9.73;;;3.60;;
27209;SDS011;14721;42.668;23.386;2023-02-28T17:16:04;9.63;;;4.50;;
27209;SDS011;14721;42.668;23.386;2023-02-28T17:18:30;5.60;;;3.47;;